createdAt,value
2022-12-25T00:00:55.730Z,4.10
2022-12-25T00:03:22.991Z,3.55
2022-12-25T00:05:49.863Z,3.13
2022-12-25T00:08:16.619Z,3.38
2022-12-25T00:10:45.585Z,3.67
2022-12-25T00:13:12.548Z,3.33
2022-12-25T00:15:41.479Z,3.13
2022-12-25T00:18:08.283Z,3.75
2022-12-25T00:20:35.076Z,3.70
2022-12-25T00:23:01.787Z,3.50
2022-12-25T00:25:28.564Z,3.35
2022-12-25T00:27:55.246Z,2.72
2022-12-25T00:30:22.071Z,3.47
2022-12-25T00:32:49.008Z,3.83
2022-12-25T00:35:15.853Z,4.45
2022-12-25T00:37:42.528Z,3.33
2022-12-25T00:40:09.833Z,3.00
2022-12-25T00:42:36.591Z,3.00
2022-12-25T00:45:04.717Z,3.95
2022-12-25T00:47:32.590Z,3.72
2022-12-25T00:49:59.315Z,3.10
2022-12-25T00:52:26.055Z,4.05
2022-12-25T00:54:52.899Z,4.10
2022-12-25T00:57:19.699Z,3.90
2022-12-25T00:59:46.399Z,3.20
2022-12-25T01:02:25.489Z,3.13
2022-12-25T01:04:55.509Z,4.03
2022-12-25T01:07:25.240Z,3.42
2022-12-25T01:10:11.506Z,2.65
2022-12-25T01:12:40.344Z,2.08
2022-12-25T01:15:09.015Z,3.00
2022-12-25T01:17:36.025Z,2.60
2022-12-25T01:20:03.134Z,2.05
2022-12-25T01:22:30.023Z,2.50
2022-12-25T01:24:56.785Z,3.42
2022-12-25T01:27:24.140Z,2.58
2022-12-25T01:29:50.852Z,2.40
2022-12-25T01:32:17.627Z,2.40
2022-12-25T01:34:49.315Z,2.30
2022-12-25T01:37:20.594Z,2.15
2022-12-25T01:39:47.530Z,2.50
2022-12-25T01:42:19.312Z,2.22
2022-12-25T01:44:46.082Z,1.90
2022-12-25T01:47:13.214Z,1.73
2022-12-25T01:49:42.352Z,2.08
2022-12-25T01:52:16.526Z,1.88
2022-12-25T01:54:52.458Z,2.35
2022-12-25T01:57:32.117Z,2.60
2022-12-25T01:59:59.905Z,1.63
2022-12-25T02:02:28.246Z,2.63
2022-12-25T02:05:07.848Z,1.90
2022-12-25T02:07:37.177Z,2.00
2022-12-25T02:10:04.498Z,2.22
2022-12-25T02:12:33.940Z,2.05
2022-12-25T02:15:06.573Z,2.17
2022-12-25T02:17:38.651Z,2.30
2022-12-25T02:20:29.987Z,1.63
2022-12-25T02:23:12.379Z,1.88
2022-12-25T02:25:53.279Z,1.90
2022-12-25T02:28:29.838Z,2.10
2022-12-25T02:31:09.469Z,1.25
2022-12-25T02:34:01.185Z,2.10
2022-12-25T02:36:56.283Z,1.35
2022-12-25T02:39:56.500Z,2.97
2022-12-25T02:42:53.459Z,1.10
2022-12-25T02:46:02.873Z,1.55
2022-12-25T02:48:55.066Z,1.63
2022-12-25T02:51:43.617Z,1.75
2022-12-25T02:54:33.208Z,1.40
2022-12-25T02:57:23.454Z,1.38
2022-12-25T03:00:12.774Z,1.13
2022-12-25T03:03:00.787Z,0.88
2022-12-25T03:05:47.641Z,0.90
2022-12-25T03:08:21.830Z,1.13
2022-12-25T03:11:31.675Z,1.10
2022-12-25T03:14:25.906Z,1.23
2022-12-25T03:19:45.665Z,0.95
2022-12-25T03:22:40.315Z,1.20
2022-12-25T03:25:26.326Z,1.00
2022-12-25T03:27:55.558Z,1.33
2022-12-25T03:30:48.232Z,0.93
2022-12-25T03:33:43.883Z,1.40
2022-12-25T03:36:28.531Z,1.42
2022-12-25T03:39:09.507Z,1.00
2022-12-25T03:42:02.527Z,1.27
2022-12-25T03:44:59.520Z,1.23
2022-12-25T03:47:37.684Z,0.90
2022-12-25T03:50:31.724Z,1.30
2022-12-25T03:53:18.467Z,1.25
2022-12-25T03:56:04.591Z,0.90
2022-12-25T03:58:50.520Z,1.48
2022-12-25T04:01:36.724Z,0.95
2022-12-25T04:04:22.723Z,1.00
2022-12-25T04:07:08.825Z,0.93
2022-12-25T04:09:54.923Z,1.50
2022-12-25T04:12:40.720Z,0.93
2022-12-25T04:15:26.899Z,0.95
2022-12-25T04:18:12.740Z,0.82
2022-12-25T04:21:00.202Z,0.85
2022-12-25T04:23:46.143Z,0.68
2022-12-25T04:26:32.342Z,0.70
2022-12-25T04:29:18.450Z,0.80
2022-12-25T04:32:04.644Z,1.45
2022-12-25T04:34:50.348Z,0.90
2022-12-25T04:37:17.588Z,0.82
2022-12-25T04:39:44.752Z,1.10
2022-12-25T04:42:12.089Z,1.20
2022-12-25T04:44:39.229Z,1.38
2022-12-25T04:47:11.243Z,0.70
2022-12-25T04:49:39.277Z,1.17
2022-12-25T04:52:06.513Z,1.00
2022-12-25T04:54:33.670Z,1.05
2022-12-25T04:57:00.912Z,0.68
2022-12-25T04:59:28.153Z,1.23
2022-12-25T05:01:55.517Z,0.80
2022-12-25T05:04:22.780Z,0.95
2022-12-25T05:06:49.959Z,1.00
2022-12-25T05:09:17.313Z,1.00
2022-12-25T05:11:44.598Z,1.30
2022-12-25T05:14:11.793Z,0.93
2022-12-25T05:16:39.145Z,0.80
2022-12-25T05:19:06.309Z,1.70
2022-12-25T05:21:33.598Z,1.00
2022-12-25T05:24:00.719Z,1.20
2022-12-25T05:26:28.517Z,1.55
2022-12-25T05:28:55.750Z,0.98
2022-12-25T05:31:23.247Z,1.00
2022-12-25T05:33:51.718Z,1.08
2022-12-25T05:36:20.521Z,1.08
2022-12-25T05:38:47.736Z,1.17
2022-12-25T05:41:15.224Z,0.88
2022-12-25T05:43:42.484Z,1.38
2022-12-25T05:46:10.643Z,1.20
2022-12-25T05:48:38.714Z,1.35
2022-12-25T05:51:07.130Z,1.35
2022-12-25T05:53:34.376Z,0.77
2022-12-25T05:56:03.198Z,1.42
2022-12-25T05:58:30.845Z,1.50
2022-12-25T06:00:58.275Z,1.00
2022-12-25T06:03:25.988Z,1.48
2022-12-25T06:05:54.387Z,1.45
2022-12-25T06:08:21.905Z,1.10
2022-12-25T06:10:49.156Z,1.20
2022-12-25T06:13:16.331Z,1.65
2022-12-25T06:15:43.681Z,1.65
2022-12-25T06:18:11.011Z,1.30
2022-12-25T06:20:40.842Z,1.88
2022-12-25T06:23:08.130Z,1.23
2022-12-25T06:25:35.295Z,1.27
2022-12-25T06:28:02.580Z,1.33
2022-12-25T06:30:29.698Z,1.27
2022-12-25T06:32:56.898Z,1.60
2022-12-25T06:35:25.022Z,1.60
2022-12-25T06:37:53.252Z,1.23
2022-12-25T06:40:20.524Z,1.50
2022-12-25T06:42:50.602Z,1.95
2022-12-25T06:45:17.883Z,1.63
2022-12-25T06:47:45.187Z,1.50
2022-12-25T06:50:12.509Z,1.63
2022-12-25T06:52:39.662Z,1.92
2022-12-25T06:55:10.317Z,2.35
2022-12-25T06:57:37.579Z,1.33
2022-12-25T07:00:05.139Z,2.08
2022-12-25T07:02:33.674Z,1.20
2022-12-25T07:05:00.990Z,1.70
2022-12-25T07:07:28.191Z,1.40
2022-12-25T07:09:55.375Z,1.40
2022-12-25T07:12:24.169Z,1.20
2022-12-25T07:14:54.764Z,1.95
2022-12-25T07:17:21.957Z,1.20
2022-12-25T07:19:49.370Z,1.70
2022-12-25T07:22:16.960Z,1.27
2022-12-25T07:24:44.222Z,1.83
2022-12-25T07:27:11.622Z,1.50
2022-12-25T07:29:38.906Z,1.55
2022-12-25T07:32:06.678Z,1.80
2022-12-25T07:34:33.992Z,1.60
2022-12-25T07:37:01.335Z,1.63
2022-12-25T07:39:28.687Z,1.45
2022-12-25T07:41:55.911Z,2.60
2022-12-25T07:44:26.640Z,1.60
2022-12-25T07:46:53.888Z,2.20
2022-12-25T07:49:21.148Z,1.90
2022-12-25T07:51:48.414Z,1.52
2022-12-25T07:54:15.754Z,2.05
2022-12-25T07:56:42.995Z,2.60
2022-12-25T07:59:10.322Z,2.80
2022-12-25T08:01:37.756Z,2.60
2022-12-25T08:04:05.273Z,2.25
2022-12-25T08:06:35.327Z,2.67
2022-12-25T08:09:04.537Z,2.03
2022-12-25T08:11:31.739Z,2.10
2022-12-25T08:13:58.993Z,2.88
2022-12-25T08:16:26.245Z,2.20
2022-12-25T08:18:54.333Z,2.38
2022-12-25T08:21:21.609Z,2.35
2022-12-25T08:23:48.906Z,2.17
2022-12-25T08:26:17.747Z,2.88
2022-12-25T08:28:45.374Z,2.25
2022-12-25T08:31:23.490Z,2.10
2022-12-25T08:33:51.724Z,2.47
2022-12-25T08:36:19.773Z,1.98
2022-12-25T08:38:47.471Z,1.65
2022-12-25T08:41:15.485Z,2.15
2022-12-25T08:43:42.801Z,2.03
2022-12-25T08:46:10.155Z,2.20
2022-12-25T08:48:37.711Z,1.95
2022-12-25T08:51:05.727Z,2.58
2022-12-25T08:53:32.929Z,2.00
2022-12-25T08:56:01.260Z,2.22
2022-12-25T08:58:28.739Z,2.20
2022-12-25T09:00:56.373Z,1.90
2022-12-25T09:03:23.869Z,1.83
2022-12-25T09:05:51.758Z,3.10
2022-12-25T09:08:19.604Z,3.03
2022-12-25T09:10:46.692Z,5.47
2022-12-25T09:13:14.088Z,3.50
2022-12-25T09:15:41.487Z,4.97
2022-12-25T09:18:08.690Z,3.10
2022-12-25T09:20:35.813Z,3.88
2022-12-25T09:23:05.152Z,2.65
2022-12-25T09:25:35.745Z,2.73
2022-12-25T09:28:03.396Z,2.83
2022-12-25T09:30:30.582Z,3.00
2022-12-25T09:32:57.862Z,3.50
2022-12-25T09:35:25.401Z,2.97
2022-12-25T09:37:54.592Z,2.80
2022-12-25T09:40:22.164Z,2.70
2022-12-25T09:42:49.985Z,3.00
2022-12-25T09:45:20.328Z,2.88
2022-12-25T09:47:48.440Z,3.20
2022-12-25T09:50:22.171Z,3.47
2022-12-25T09:52:59.136Z,6.25
2022-12-25T09:55:27.765Z,4.43
2022-12-25T09:57:56.410Z,3.30
2022-12-25T10:00:24.840Z,2.53
2022-12-25T10:03:01.687Z,2.90
2022-12-25T10:05:32.131Z,2.67
2022-12-25T10:08:05.523Z,2.70
2022-12-25T10:10:32.980Z,3.28
2022-12-25T10:13:22.351Z,2.75
2022-12-25T10:15:49.608Z,2.50
2022-12-25T10:18:28.403Z,2.30
2022-12-25T10:21:01.393Z,2.85
2022-12-25T10:23:30.042Z,2.67
2022-12-25T10:25:57.554Z,2.58
2022-12-25T10:28:24.913Z,3.28
2022-12-25T10:30:52.957Z,2.90
2022-12-25T10:33:21.251Z,2.05
2022-12-25T10:35:48.523Z,3.28
2022-12-25T10:38:17.507Z,2.75
2022-12-25T10:40:56.701Z,3.00
2022-12-25T10:43:26.311Z,3.10
2022-12-25T10:45:53.549Z,2.92
2022-12-25T10:48:26.414Z,3.40
2022-12-25T10:50:53.658Z,3.33
2022-12-25T10:53:29.441Z,3.38
2022-12-25T10:56:00.095Z,3.33
2022-12-25T10:58:27.841Z,3.83
2022-12-25T11:00:57.377Z,3.03
2022-12-25T11:03:27.205Z,3.63
2022-12-25T11:05:54.680Z,3.33
2022-12-25T11:08:23.336Z,3.90
2022-12-25T11:11:06.722Z,4.57
2022-12-25T11:13:38.705Z,3.10
2022-12-25T11:16:11.516Z,4.43
2022-12-25T11:18:49.829Z,2.80
2022-12-25T11:21:18.628Z,4.03
2022-12-25T11:23:57.725Z,3.78
2022-12-25T11:26:25.239Z,3.78
2022-12-25T11:28:53.902Z,3.17
2022-12-25T11:31:28.536Z,4.60
2022-12-25T11:33:58.175Z,4.13
2022-12-25T11:36:45.786Z,3.25
2022-12-25T11:39:22.397Z,3.97
2022-12-25T11:41:52.121Z,3.50
2022-12-25T11:44:31.661Z,3.78
2022-12-25T11:47:02.856Z,2.90
2022-12-25T11:49:30.931Z,3.92
2022-12-25T11:51:58.526Z,4.28
2022-12-25T11:54:28.356Z,6.28
2022-12-25T11:56:56.106Z,5.25
2022-12-25T11:59:26.168Z,4.63
2022-12-25T12:01:59.498Z,4.65
2022-12-25T12:04:30.826Z,4.93
2022-12-25T12:07:14.275Z,3.55
2022-12-25T12:09:56.732Z,4.05
2022-12-25T12:12:48.526Z,4.18
2022-12-25T12:15:19.571Z,4.25
2022-12-25T12:17:46.976Z,4.00
2022-12-25T12:20:27.343Z,4.40
2022-12-25T12:22:55.028Z,4.93
2022-12-25T12:25:22.632Z,5.00
2022-12-25T12:27:58.454Z,4.57
2022-12-25T12:30:32.542Z,4.50
2022-12-25T12:33:01.495Z,3.85
2022-12-25T12:35:36.817Z,4.25
2022-12-25T12:38:18.451Z,3.55
2022-12-25T12:40:54.305Z,4.35
2022-12-25T12:43:27.300Z,4.05
2022-12-25T12:46:06.184Z,3.97
2022-12-25T12:48:39.219Z,4.47
2022-12-25T12:51:11.290Z,3.35
2022-12-25T12:53:39.965Z,4.93
2022-12-25T12:56:11.113Z,3.33
2022-12-25T12:58:40.696Z,4.43
2022-12-25T13:01:26.953Z,3.63
2022-12-25T13:04:03.307Z,4.78
2022-12-25T13:06:30.536Z,4.72
2022-12-25T13:09:14.746Z,3.63
2022-12-25T13:11:43.806Z,4.00
2022-12-25T13:14:19.186Z,4.63
2022-12-25T13:16:48.167Z,4.55
2022-12-25T13:19:26.761Z,4.10
2022-12-25T13:21:54.146Z,4.50
2022-12-25T13:24:29.194Z,4.07
2022-12-25T13:26:56.567Z,3.53
2022-12-25T13:29:29.560Z,3.58
2022-12-25T13:31:58.713Z,3.60
2022-12-25T13:34:31.674Z,15.82
2022-12-25T13:37:06.959Z,3.75
2022-12-25T13:39:35.206Z,3.78
2022-12-25T13:42:05.593Z,3.65
2022-12-25T13:44:44.792Z,3.78
2022-12-25T13:47:14.853Z,3.97
2022-12-25T13:49:42.046Z,3.92
2022-12-25T13:52:13.781Z,4.32
2022-12-25T13:54:51.565Z,3.85
2022-12-25T13:57:18.929Z,4.60
2022-12-25T13:59:46.097Z,4.65
2022-12-25T14:02:19.574Z,4.68
2022-12-25T14:04:46.938Z,4.15
2022-12-25T14:07:19.187Z,4.88
2022-12-25T14:09:47.649Z,4.03
2022-12-25T14:12:19.248Z,4.35
2022-12-25T14:14:46.881Z,5.03
2022-12-25T14:17:14.225Z,3.70
2022-12-25T14:19:41.491Z,4.00
2022-12-25T14:22:17.453Z,4.20
2022-12-25T14:24:44.785Z,4.38
2022-12-25T14:27:20.110Z,4.75
2022-12-25T14:29:48.534Z,4.35
2022-12-25T14:32:20.382Z,5.80
2022-12-25T14:34:50.062Z,5.28
2022-12-25T14:37:18.682Z,4.60
2022-12-25T14:39:47.488Z,5.63
2022-12-25T14:42:24.653Z,4.00
2022-12-25T14:44:59.197Z,6.65
2022-12-25T14:47:26.842Z,4.68
2022-12-25T14:49:54.599Z,3.90
2022-12-25T14:52:23.797Z,3.58
2022-12-25T14:55:20.837Z,4.18
2022-12-25T14:57:49.964Z,3.83
2022-12-25T15:00:26.235Z,2.92
2022-12-25T15:02:54.773Z,3.97
2022-12-25T15:05:25.624Z,3.70
2022-12-25T15:08:00.683Z,4.15
2022-12-25T15:10:59.069Z,4.47
2022-12-25T15:13:17.775Z,3.78
2022-12-25T15:16:06.835Z,3.92
2022-12-25T15:18:38.789Z,3.22
2022-12-25T15:21:06.813Z,2.78
2022-12-25T15:23:34.001Z,4.63
2022-12-25T15:26:01.239Z,3.65
2022-12-25T15:28:28.492Z,6.25
2022-12-25T15:30:55.784Z,5.05
2022-12-25T15:33:22.992Z,4.05
2022-12-25T15:35:50.171Z,4.00
2022-12-25T15:38:17.501Z,4.15
2022-12-25T15:40:44.605Z,5.55
2022-12-25T15:43:39.394Z,4.90
2022-12-25T15:46:02.514Z,4.65
2022-12-25T15:48:29.639Z,4.75
2022-12-25T15:50:56.766Z,3.95
2022-12-25T15:53:24.467Z,3.67
2022-12-25T15:55:51.648Z,3.40
2022-12-25T15:58:19.135Z,4.10
2022-12-25T16:00:46.316Z,3.67
2022-12-25T16:03:13.720Z,4.47
2022-12-25T16:05:41.029Z,4.32
2022-12-25T16:08:08.852Z,4.85
2022-12-25T16:10:38.888Z,4.85
2022-12-25T16:13:06.341Z,4.30
2022-12-25T16:15:33.590Z,5.85
2022-12-25T16:18:00.891Z,4.20
2022-12-25T16:20:27.994Z,4.63
2022-12-25T16:22:55.134Z,4.22
2022-12-25T16:25:22.393Z,3.88
2022-12-25T16:27:49.531Z,4.47
2022-12-25T16:30:18.244Z,3.83
2022-12-25T16:32:49.010Z,4.22
2022-12-25T16:35:16.963Z,4.35
2022-12-25T16:37:44.167Z,4.35
2022-12-25T16:40:11.476Z,4.35
2022-12-25T16:42:38.630Z,4.18
2022-12-25T16:45:06.550Z,3.47
2022-12-25T16:47:33.756Z,3.75
2022-12-25T16:50:01.012Z,4.38
2022-12-25T16:52:28.183Z,3.58
2022-12-25T16:54:55.433Z,4.68
2022-12-25T16:57:22.633Z,3.97
2022-12-25T16:59:49.934Z,6.47
2022-12-25T17:02:18.334Z,4.60
2022-12-25T17:04:45.975Z,3.22
2022-12-25T17:07:13.348Z,3.80
2022-12-25T17:09:44.425Z,3.47
2022-12-25T17:12:11.783Z,3.58
2022-12-25T17:14:38.898Z,4.57
2022-12-25T17:17:06.204Z,3.67
2022-12-25T17:19:33.471Z,3.63
2022-12-25T17:22:00.816Z,3.53
2022-12-25T17:24:28.731Z,3.17
2022-12-25T17:26:55.926Z,3.15
2022-12-25T17:29:24.935Z,3.85
2022-12-25T17:31:52.389Z,4.40
2022-12-25T17:34:19.740Z,4.68
2022-12-25T17:36:47.447Z,3.80
2022-12-25T17:39:14.763Z,4.40
2022-12-25T17:41:42.050Z,3.90
2022-12-25T17:44:09.594Z,3.90
2022-12-25T17:46:37.810Z,4.82
2022-12-25T17:49:05.665Z,4.60
2022-12-25T17:51:33.357Z,4.93
2022-12-25T17:54:04.536Z,4.47
2022-12-25T17:56:32.445Z,5.65
2022-12-25T17:59:00.657Z,6.70
2022-12-25T18:01:28.995Z,5.28
2022-12-25T18:03:56.363Z,4.82
2022-12-25T18:06:24.623Z,4.18
2022-12-25T18:08:51.791Z,4.75
2022-12-25T18:11:21.528Z,4.47
2022-12-25T18:13:51.629Z,4.47
2022-12-25T18:16:19.766Z,4.97
2022-12-25T18:18:51.776Z,4.53
2022-12-25T18:21:19.627Z,5.65
2022-12-25T18:23:47.708Z,4.53
2022-12-25T18:26:14.925Z,5.07
2022-12-25T18:28:42.568Z,5.07
2022-12-25T18:31:10.807Z,6.15
2022-12-25T18:33:38.030Z,5.68
2022-12-25T18:36:05.382Z,5.85
2022-12-25T18:38:32.681Z,5.97
2022-12-25T18:41:00.818Z,4.50
2022-12-25T18:43:52.222Z,4.28
2022-12-25T18:46:17.447Z,4.97
2022-12-25T18:48:45.092Z,4.63
2022-12-25T18:51:14.432Z,4.78
2022-12-25T18:53:41.856Z,4.40
2022-12-25T18:56:10.575Z,4.50
2022-12-25T18:58:38.214Z,4.07
2022-12-25T19:01:19.615Z,4.68
2022-12-25T19:03:48.977Z,4.10
2022-12-25T19:06:17.844Z,4.82
2022-12-25T19:08:45.049Z,3.47
2022-12-25T19:11:13.506Z,3.97
2022-12-25T19:13:40.764Z,3.65
2022-12-25T19:16:08.234Z,3.63
2022-12-25T19:18:35.609Z,3.42
2022-12-25T19:21:03.623Z,3.10
2022-12-25T19:23:30.802Z,2.90
2022-12-25T19:25:58.043Z,4.45
2022-12-25T19:28:25.695Z,3.30
2022-12-25T19:30:54.569Z,3.35
2022-12-25T19:33:22.799Z,3.55
2022-12-25T19:35:50.645Z,4.00
2022-12-25T19:38:19.373Z,4.72
2022-12-25T19:41:00.221Z,3.17
2022-12-25T19:43:31.699Z,3.60
2022-12-25T19:45:59.660Z,4.07
2022-12-25T19:48:26.978Z,4.07
2022-12-25T19:50:54.414Z,3.85
2022-12-25T19:53:23.624Z,5.03
2022-12-25T19:55:52.464Z,4.05
2022-12-25T19:58:20.411Z,4.53
2022-12-25T20:00:57.401Z,4.05
2022-12-25T20:03:24.745Z,5.50
2022-12-25T20:05:54.419Z,4.90
2022-12-25T20:08:21.764Z,5.00
2022-12-25T20:10:49.193Z,5.55
2022-12-25T20:13:16.701Z,4.93
2022-12-25T20:15:43.947Z,5.10
2022-12-25T20:18:11.214Z,5.30
2022-12-25T20:20:38.496Z,5.95
2022-12-25T20:23:06.085Z,6.10
2022-12-25T20:25:33.748Z,5.32
2022-12-25T20:28:01.027Z,6.05
2022-12-25T20:30:28.245Z,6.75
2022-12-25T20:32:58.018Z,6.10
2022-12-25T20:35:25.246Z,6.78
2022-12-25T20:37:52.473Z,4.97
2022-12-25T20:40:19.629Z,6.00
2022-12-25T20:42:46.729Z,5.90
2022-12-25T20:45:13.830Z,6.22
2022-12-25T20:47:41.944Z,6.30
2022-12-25T20:50:12.435Z,6.40
2022-12-25T20:52:39.560Z,7.78
2022-12-25T20:55:06.787Z,6.88
2022-12-25T20:57:34.295Z,7.25
2022-12-25T21:00:01.529Z,6.60
2022-12-25T21:02:34.397Z,6.65
2022-12-25T21:05:06.883Z,5.80
2022-12-25T21:07:34.310Z,6.72
2022-12-25T21:10:01.628Z,6.20
2022-12-25T21:12:28.859Z,6.55
2022-12-25T21:14:56.076Z,6.80
2022-12-25T21:17:23.220Z,7.32
2022-12-25T21:19:52.524Z,5.63
2022-12-25T21:22:19.720Z,6.53
2022-12-25T21:24:51.825Z,5.80
2022-12-25T21:27:19.194Z,5.88
2022-12-25T21:29:47.404Z,5.10
2022-12-25T21:32:33.405Z,5.47
2022-12-25T21:35:07.692Z,5.82
2022-12-25T21:37:39.641Z,5.35
2022-12-25T21:40:16.035Z,4.97
2022-12-25T21:42:43.876Z,5.13
2022-12-25T21:45:11.287Z,4.80
2022-12-25T21:48:02.466Z,4.82
2022-12-25T21:50:45.132Z,4.95
2022-12-25T21:53:18.427Z,5.35
2022-12-25T21:56:07.748Z,5.32
2022-12-25T21:58:36.968Z,5.22
2022-12-25T22:01:04.383Z,4.43
2022-12-25T22:03:34.737Z,5.38
2022-12-25T22:06:21.815Z,5.03
2022-12-25T22:08:50.310Z,4.70
2022-12-25T22:11:36.127Z,5.18
2022-12-25T22:14:50.238Z,6.03
2022-12-25T22:17:29.500Z,5.10
2022-12-25T22:19:56.896Z,5.95
2022-12-25T22:22:25.494Z,4.80
2022-12-25T22:24:55.860Z,5.97
2022-12-25T22:27:23.749Z,5.30
2022-12-25T22:29:52.916Z,4.25
2022-12-25T22:32:27.221Z,5.47
2022-12-25T22:34:54.640Z,5.82
2022-12-25T22:37:24.499Z,5.07
2022-12-25T22:39:52.856Z,4.85
2022-12-25T22:42:20.461Z,4.65
2022-12-25T22:44:47.869Z,4.63
2022-12-25T22:47:15.465Z,4.68
2022-12-25T22:49:45.653Z,4.65
2022-12-25T22:52:12.905Z,5.32
2022-12-25T22:54:41.702Z,4.55
2022-12-25T22:57:10.153Z,5.05
2022-12-25T22:59:38.628Z,4.93
2022-12-25T23:02:09.065Z,4.85
2022-12-25T23:04:38.831Z,4.80
2022-12-25T23:07:06.215Z,5.72
2022-12-25T23:09:33.681Z,4.53
2022-12-25T23:12:00.863Z,4.78
2022-12-25T23:14:40.117Z,3.92
2022-12-25T23:17:31.800Z,4.63
2022-12-25T23:20:26.755Z,4.63
2022-12-25T23:23:16.814Z,4.10
2022-12-25T23:26:04.206Z,4.45
2022-12-25T23:28:50.737Z,4.20
2022-12-25T23:31:21.675Z,3.70
2022-12-25T23:33:55.403Z,5.07
2022-12-25T23:39:09.014Z,4.25
2022-12-25T23:41:40.278Z,4.20
2022-12-25T23:44:14.774Z,4.75
2022-12-25T23:46:52.646Z,3.45
2022-12-25T23:49:24.481Z,4.05
2022-12-25T23:51:52.712Z,4.55
2022-12-25T23:54:24.371Z,4.05
2022-12-25T23:56:52.062Z,3.85
2022-12-25T23:59:19.424Z,3.55
